createdAt,value
2019-05-01T00:01:39.969Z,62.65
2019-05-01T00:04:16.927Z,64.45
2019-05-01T00:06:47.931Z,65.08
2019-05-01T00:09:17.550Z,68.17
2019-05-01T00:11:46.850Z,69.15
2019-05-01T00:14:16.222Z,64.45
2019-05-01T00:16:46.184Z,70.95
2019-05-01T00:19:15.550Z,64.60
2019-05-01T00:21:44.858Z,65.45
2019-05-01T00:24:14.159Z,67.42
2019-05-01T00:26:43.546Z,61.85
2019-05-01T00:29:12.884Z,60.12
2019-05-01T00:31:42.209Z,54.42
2019-05-01T00:34:11.612Z,56.60
2019-05-01T00:36:40.921Z,53.28
2019-05-01T00:39:12.000Z,52.23
2019-05-01T00:41:41.975Z,49.25
2019-05-01T00:44:11.452Z,52.08
2019-05-01T00:46:40.759Z,49.55
2019-05-01T00:49:10.062Z,52.15
2019-05-01T00:51:39.360Z,53.13
2019-05-01T00:54:08.648Z,50.08
2019-05-01T00:56:39.590Z,50.73
2019-05-01T00:59:19.569Z,46.88
2019-05-01T01:01:50.561Z,52.55
2019-05-01T01:04:20.580Z,51.08
2019-05-01T01:06:49.937Z,52.58
2019-05-01T01:09:19.502Z,51.40
2019-05-01T01:11:49.073Z,50.78
2019-05-01T01:14:18.372Z,52.45
2019-05-01T01:16:47.687Z,57.67
2019-05-01T01:19:17.001Z,51.53
2019-05-01T01:21:46.271Z,56.18
2019-05-01T01:24:15.643Z,52.43
2019-05-01T01:26:44.990Z,52.83
2019-05-01T01:29:14.301Z,50.48
2019-05-01T01:31:43.576Z,50.70
2019-05-01T01:34:16.027Z,53.73
2019-05-01T01:36:45.323Z,50.45
2019-05-01T01:39:14.600Z,53.15
2019-05-01T01:41:44.457Z,50.50
2019-05-01T01:44:15.738Z,51.15
2019-05-01T01:46:47.471Z,49.88
2019-05-01T01:49:17.174Z,51.55
2019-05-01T01:51:46.612Z,52.83
2019-05-01T01:54:15.989Z,52.33
2019-05-01T01:56:45.292Z,50.90
2019-05-01T01:59:15.541Z,51.30
2019-05-01T02:01:46.659Z,50.55
2019-05-01T02:04:17.828Z,51.95
2019-05-01T02:06:48.253Z,52.65
2019-05-01T02:09:17.802Z,50.58
2019-05-01T02:11:47.608Z,48.85
2019-05-01T02:14:17.121Z,51.95
2019-05-01T02:16:47.823Z,53.42
2019-05-01T02:19:17.122Z,47.53
2019-05-01T02:21:46.426Z,52.20
2019-05-01T02:24:15.737Z,48.75
2019-05-01T02:26:49.590Z,53.50
2019-05-01T02:29:20.670Z,48.70
2019-05-01T02:31:52.453Z,51.18
2019-05-01T02:34:22.089Z,52.25
2019-05-01T02:36:52.560Z,49.80
2019-05-01T02:39:22.509Z,53.10
2019-05-01T02:41:53.379Z,54.70
2019-05-01T02:44:31.762Z,54.80
2019-05-01T02:47:04.303Z,56.23
2019-05-01T02:49:51.758Z,51.90
2019-05-01T02:52:23.456Z,52.50
2019-05-01T02:54:53.739Z,55.38
2019-05-01T02:57:24.048Z,52.08
2019-05-01T02:59:54.395Z,54.83
2019-05-01T03:02:25.560Z,51.88
2019-05-01T03:04:55.771Z,52.50
2019-05-01T03:07:25.440Z,55.10
2019-05-01T03:09:55.287Z,54.48
2019-05-01T03:12:27.464Z,49.85
2019-05-01T03:14:58.870Z,55.17
2019-05-01T03:17:33.154Z,58.58
2019-05-01T03:20:04.416Z,55.40
2019-05-01T03:22:52.873Z,54.80
2019-05-01T03:25:23.102Z,54.90
2019-05-01T03:27:52.417Z,57.20
2019-05-01T03:30:21.959Z,58.40
2019-05-01T03:32:51.207Z,52.73
2019-05-01T03:35:20.549Z,49.77
2019-05-01T03:37:49.927Z,52.35
2019-05-01T03:40:19.424Z,50.08
2019-05-01T03:42:49.001Z,52.70
2019-05-01T03:45:18.442Z,53.70
2019-05-01T03:47:48.015Z,54.25
2019-05-01T03:50:17.348Z,58.95
2019-05-01T03:52:46.810Z,52.03
2019-05-01T03:55:16.347Z,56.10
2019-05-01T03:57:45.757Z,58.63
2019-05-01T04:00:23.327Z,54.63
2019-05-01T04:03:12.275Z,54.73
2019-05-01T04:05:41.609Z,51.30
2019-05-01T04:08:11.143Z,52.20
2019-05-01T04:10:40.419Z,53.95
2019-05-01T04:13:09.800Z,60.03
2019-05-01T04:15:39.201Z,61.58
2019-05-01T04:18:09.817Z,62.33
2019-05-01T04:20:40.201Z,56.15
2019-05-01T04:23:11.318Z,61.48
2019-05-01T04:25:40.839Z,61.75
2019-05-01T04:28:28.213Z,62.78
2019-05-01T04:31:17.222Z,62.08
2019-05-01T04:33:49.369Z,61.00
2019-05-01T04:36:26.697Z,66.17
2019-05-01T04:38:56.277Z,61.55
2019-05-01T04:41:25.629Z,65.45
2019-05-01T04:43:55.122Z,55.63
2019-05-01T04:46:24.477Z,58.23
2019-05-01T04:48:53.770Z,57.25
2019-05-01T04:51:23.043Z,62.48
2019-05-01T04:53:52.325Z,61.28
2019-05-01T04:56:21.624Z,66.17
2019-05-01T04:58:51.596Z,68.90
2019-05-01T05:01:21.759Z,64.42
2019-05-01T05:03:51.140Z,65.30
2019-05-01T05:06:20.421Z,66.82
2019-05-01T05:08:49.818Z,64.22
2019-05-01T05:11:21.201Z,68.15
2019-05-01T05:14:10.307Z,65.92
2019-05-01T05:16:47.461Z,62.30
2019-05-01T05:19:17.733Z,62.90
2019-05-01T05:21:47.235Z,60.67
2019-05-01T05:24:18.413Z,64.10
2019-05-01T05:26:47.749Z,65.42
2019-05-01T05:29:17.513Z,63.80
2019-05-01T05:31:47.521Z,67.95
2019-05-01T05:34:21.256Z,65.52
2019-05-01T05:36:53.339Z,73.45
2019-05-01T05:39:31.340Z,65.00
2019-05-01T05:42:02.383Z,62.73
2019-05-01T05:44:32.115Z,66.35
2019-05-01T05:47:01.395Z,59.73
2019-05-01T05:49:31.196Z,61.73
2019-05-01T05:52:06.124Z,62.70
2019-05-01T05:54:38.853Z,60.12
2019-05-01T05:59:53.348Z,58.70
2019-05-01T06:02:24.538Z,58.20
2019-05-01T06:04:57.054Z,68.05
2019-05-01T06:07:32.492Z,58.75
2019-05-01T06:10:18.589Z,59.25
2019-05-01T06:12:52.218Z,59.05
2019-05-01T06:15:26.318Z,60.03
2019-05-01T06:17:59.057Z,53.55
2019-05-01T06:23:15.782Z,56.77
2019-05-01T06:26:02.346Z,57.85
2019-05-01T06:28:31.336Z,57.00
2019-05-01T06:31:17.732Z,55.12
2019-05-01T06:33:48.647Z,49.83
2019-05-01T06:36:17.165Z,51.13
2019-05-01T06:38:47.183Z,48.58
2019-05-01T06:41:18.772Z,50.50
2019-05-01T06:43:52.067Z,45.88
2019-05-01T06:46:27.396Z,51.35
2019-05-01T06:48:56.602Z,52.83
2019-05-01T06:51:36.975Z,52.03
2019-05-01T06:54:16.186Z,54.55
2019-05-01T06:56:45.910Z,55.30
2019-05-01T06:59:16.557Z,54.18
2019-05-01T07:01:46.401Z,54.35
2019-05-01T07:04:15.782Z,55.08
2019-05-01T07:06:45.250Z,51.80
2019-05-01T07:09:27.146Z,56.00
2019-05-01T07:11:47.394Z,54.70
2019-05-01T07:14:18.232Z,56.58
2019-05-01T07:16:49.076Z,57.85
2019-05-01T07:19:20.179Z,61.90
2019-05-01T07:21:49.495Z,63.05
2019-05-01T07:24:19.135Z,65.32
2019-05-01T07:26:49.221Z,62.53
2019-05-01T07:29:26.330Z,60.65
2019-05-01T07:31:55.642Z,61.58
2019-05-01T07:34:27.339Z,66.12
2019-05-01T07:36:57.001Z,60.03
2019-05-01T07:39:26.351Z,63.63
2019-05-01T07:41:57.578Z,67.05
2019-05-01T07:44:33.869Z,61.48
2019-05-01T07:47:03.995Z,62.83
2019-05-01T07:49:54.769Z,59.40
2019-05-01T07:52:24.491Z,66.30
2019-05-01T07:54:55.371Z,65.95
2019-05-01T07:57:24.740Z,64.72
2019-05-01T07:59:58.262Z,68.47
2019-05-01T08:02:25.975Z,64.25
2019-05-01T08:04:56.225Z,63.58
2019-05-01T08:07:27.829Z,63.95
2019-05-01T08:09:56.815Z,63.58
2019-05-01T08:12:26.113Z,62.15
2019-05-01T08:14:55.397Z,66.65
2019-05-01T08:17:26.417Z,64.15
2019-05-01T08:19:57.358Z,60.88
2019-05-01T08:22:32.011Z,64.95
2019-05-01T08:25:00.016Z,64.65
2019-05-01T08:27:37.059Z,69.27
2019-05-01T08:30:12.704Z,67.97
2019-05-01T08:32:44.538Z,68.40
2019-05-01T08:35:15.794Z,67.72
2019-05-01T08:37:45.106Z,63.75
2019-05-01T08:40:16.017Z,68.52
2019-05-01T08:42:45.888Z,67.12
2019-05-01T08:45:38.968Z,67.97
2019-05-01T08:48:10.405Z,66.47
2019-05-01T08:50:39.696Z,71.17
2019-05-01T08:53:09.125Z,68.20
2019-05-01T08:55:39.833Z,68.52
2019-05-01T08:58:13.877Z,73.80
2019-05-01T09:00:41.218Z,74.12
2019-05-01T09:03:13.478Z,71.28
2019-05-01T09:05:41.638Z,67.75
2019-05-01T09:08:10.949Z,71.97
2019-05-01T09:10:40.227Z,75.55
2019-05-01T09:13:09.794Z,74.10
2019-05-01T09:15:39.148Z,73.30
2019-05-01T09:18:08.541Z,73.17
2019-05-01T09:20:39.497Z,74.37
2019-05-01T09:23:09.519Z,71.67
2019-05-01T09:25:41.788Z,71.60
2019-05-01T09:28:15.655Z,77.87
2019-05-01T09:30:49.462Z,79.70
2019-05-01T09:33:19.735Z,75.25
2019-05-01T09:35:50.579Z,76.30
2019-05-01T09:38:19.902Z,71.15
2019-05-01T09:40:50.746Z,75.03
2019-05-01T09:43:20.094Z,75.67
2019-05-01T09:45:49.574Z,82.20
2019-05-01T09:48:18.950Z,77.55
2019-05-01T09:50:51.474Z,74.40
2019-05-01T09:53:34.316Z,78.15
2019-05-01T09:56:07.678Z,76.82
2019-05-01T09:58:38.093Z,80.90
2019-05-01T10:01:08.613Z,79.67
2019-05-01T10:03:37.933Z,81.85
2019-05-01T10:06:07.391Z,78.62
2019-05-01T10:08:40.045Z,79.47
2019-05-01T10:11:10.056Z,76.87
2019-05-01T10:13:39.394Z,76.25
2019-05-01T10:16:08.963Z,76.97
2019-05-01T10:18:39.943Z,75.12
2019-05-01T10:21:09.354Z,80.05
2019-05-01T10:23:38.663Z,80.80
2019-05-01T10:26:09.623Z,80.05
2019-05-01T10:28:45.039Z,83.47
2019-05-01T10:31:14.295Z,79.70
2019-05-01T10:33:45.378Z,81.10
2019-05-01T10:36:34.324Z,85.40
2019-05-01T10:39:05.778Z,86.78
2019-05-01T10:41:35.586Z,84.05
2019-05-01T10:44:04.955Z,86.25
2019-05-01T10:46:34.507Z,84.87
2019-05-01T10:49:05.101Z,81.42
2019-05-01T10:51:34.379Z,79.03
2019-05-01T10:54:03.756Z,89.37
2019-05-01T10:56:33.114Z,91.35
2019-05-01T10:59:02.463Z,94.85
2019-05-01T11:01:34.045Z,96.25
2019-05-01T11:04:03.787Z,92.27
2019-05-01T11:06:33.127Z,88.50
2019-05-01T11:09:02.438Z,83.92
2019-05-01T11:11:32.582Z,90.25
2019-05-01T11:14:02.001Z,84.15
2019-05-01T11:16:31.300Z,82.88
2019-05-01T11:19:00.612Z,88.07
2019-05-01T11:21:29.908Z,84.30
2019-05-01T11:23:59.279Z,77.12
2019-05-01T11:26:28.573Z,81.10
2019-05-01T11:28:57.962Z,80.20
2019-05-01T11:31:45.665Z,76.67
2019-05-01T11:34:28.623Z,82.55
2019-05-01T11:39:40.846Z,84.35
2019-05-01T11:42:15.348Z,82.72
2019-05-01T11:44:44.847Z,86.87
2019-05-01T11:47:14.126Z,78.52
2019-05-01T11:49:43.442Z,87.15
2019-05-01T11:52:12.715Z,83.70
2019-05-01T11:54:42.024Z,86.65
2019-05-01T11:57:12.373Z,89.40
2019-05-01T11:59:41.758Z,90.42
2019-05-01T12:02:11.028Z,90.20
2019-05-01T12:04:40.326Z,87.12
2019-05-01T12:07:11.413Z,84.03
2019-05-01T12:09:40.724Z,78.72
2019-05-01T12:12:17.939Z,77.32
2019-05-01T12:14:47.254Z,76.53
2019-05-01T12:17:27.257Z,78.80
2019-05-01T12:19:56.558Z,78.95
2019-05-01T12:22:25.882Z,78.92
2019-05-01T12:24:55.185Z,69.70
2019-05-01T12:27:24.484Z,77.70
2019-05-01T12:29:53.956Z,77.53
2019-05-01T12:32:23.289Z,70.32
2019-05-01T12:34:52.586Z,66.85
2019-05-01T12:37:38.639Z,66.85
2019-05-01T12:40:13.197Z,66.57
2019-05-01T12:42:42.476Z,61.40
2019-05-01T12:45:12.796Z,62.35
2019-05-01T12:47:43.734Z,67.15
2019-05-01T12:50:13.377Z,63.25
2019-05-01T12:52:44.396Z,60.85
2019-05-01T12:55:30.900Z,61.18
2019-05-01T12:58:00.179Z,60.00
2019-05-01T13:00:50.996Z,60.78
2019-05-01T13:03:20.355Z,64.32
2019-05-01T13:05:49.678Z,62.62
2019-05-01T13:08:19.031Z,65.52
2019-05-01T13:10:49.726Z,67.32
2019-05-01T13:13:19.065Z,66.65
2019-05-01T13:15:48.378Z,71.12
2019-05-01T13:18:17.746Z,72.32
2019-05-01T13:20:47.131Z,64.72
2019-05-01T13:23:16.432Z,67.53
2019-05-01T13:25:46.306Z,60.78
2019-05-01T13:28:20.189Z,61.92
2019-05-01T13:31:01.096Z,69.12
2019-05-01T13:33:30.373Z,62.80
2019-05-01T13:36:00.965Z,67.60
2019-05-01T13:38:30.247Z,71.97
2019-05-01T13:40:59.559Z,69.27
2019-05-01T13:43:29.541Z,69.85
2019-05-01T13:45:58.852Z,68.78
2019-05-01T13:48:28.229Z,65.87
2019-05-01T13:50:57.666Z,71.77
2019-05-01T13:53:26.981Z,71.97
2019-05-01T13:55:56.515Z,77.47
2019-05-01T13:58:25.886Z,81.45
2019-05-01T14:00:55.199Z,81.17
2019-05-01T14:03:24.481Z,75.40
2019-05-01T14:05:53.780Z,73.57
2019-05-01T14:08:26.152Z,74.67
2019-05-01T14:10:55.524Z,73.15
2019-05-01T14:13:24.921Z,79.67
2019-05-01T14:15:54.216Z,77.97
2019-05-01T14:18:23.539Z,80.62
2019-05-01T14:20:57.463Z,77.00
2019-05-01T14:23:44.614Z,74.50
2019-05-01T14:26:13.895Z,78.47
2019-05-01T14:28:43.577Z,76.97
2019-05-01T14:31:12.861Z,71.47
2019-05-01T14:33:42.169Z,71.77
2019-05-01T14:36:11.449Z,73.35
2019-05-01T14:38:40.861Z,70.72
2019-05-01T14:41:10.107Z,68.42
2019-05-01T14:43:39.638Z,72.70
2019-05-01T14:46:09.027Z,70.80
2019-05-01T14:48:38.427Z,71.70
2019-05-01T14:51:07.715Z,77.35
2019-05-01T14:53:37.028Z,70.72
2019-05-01T14:56:06.305Z,71.55
2019-05-01T14:58:35.620Z,66.28
2019-05-01T15:01:04.984Z,66.35
2019-05-01T15:03:34.315Z,63.08
2019-05-01T15:06:03.622Z,62.73
2019-05-01T15:08:34.042Z,59.88
2019-05-01T15:11:03.384Z,57.08
2019-05-01T15:13:43.248Z,52.75
2019-05-01T15:16:29.275Z,52.88
2019-05-01T15:19:06.222Z,58.33
2019-05-01T15:21:35.580Z,54.80
2019-05-01T15:24:05.206Z,59.77
2019-05-01T15:26:34.543Z,55.23
2019-05-01T15:29:04.063Z,58.48
2019-05-01T15:31:33.369Z,57.38
2019-05-01T15:34:03.122Z,55.58
2019-05-01T15:36:33.275Z,58.87
2019-05-01T15:39:07.070Z,53.65
2019-05-01T15:41:40.959Z,59.83
2019-05-01T15:44:16.894Z,57.78
2019-05-01T15:46:47.869Z,55.90
2019-05-01T15:49:17.171Z,54.48
2019-05-01T15:51:46.534Z,55.55
2019-05-01T15:54:15.919Z,54.33
2019-05-01T15:56:45.230Z,55.65
2019-05-01T15:59:14.548Z,58.17
2019-05-01T16:01:43.955Z,57.83
2019-05-01T16:04:13.282Z,49.58
2019-05-01T16:06:44.155Z,59.18
2019-05-01T16:09:13.581Z,56.75
2019-05-01T16:12:01.172Z,59.48
2019-05-01T16:14:31.006Z,57.00
2019-05-01T16:17:00.317Z,56.98
2019-05-01T16:19:29.698Z,52.38
2019-05-01T16:21:59.083Z,59.40
2019-05-01T16:24:28.486Z,55.78
2019-05-01T16:26:57.781Z,60.35
2019-05-01T16:29:27.131Z,53.42
2019-05-01T16:31:56.437Z,55.00
2019-05-01T16:34:25.739Z,60.23
2019-05-01T16:36:55.116Z,55.83
2019-05-01T16:39:26.249Z,53.02
2019-05-01T16:41:55.573Z,52.90
2019-05-01T16:44:24.879Z,56.30
2019-05-01T16:46:54.264Z,54.03
2019-05-01T16:49:23.634Z,53.13
2019-05-01T16:51:53.011Z,53.85
2019-05-01T16:54:22.323Z,51.25
2019-05-01T16:56:51.793Z,49.42
2019-05-01T16:59:21.100Z,54.27
2019-05-01T17:01:55.059Z,51.20
2019-05-01T17:04:31.475Z,53.78
2019-05-01T17:07:05.431Z,53.73
2019-05-01T17:09:42.400Z,47.40
2019-05-01T17:12:12.368Z,47.60
2019-05-01T17:14:41.662Z,51.63
2019-05-01T17:17:12.599Z,44.00
2019-05-01T17:19:42.015Z,44.88
2019-05-01T17:22:14.460Z,44.23
2019-05-01T17:24:42.487Z,43.85
2019-05-01T17:27:11.773Z,43.63
2019-05-01T17:29:41.226Z,43.30
2019-05-01T17:32:12.335Z,42.40
2019-05-01T17:34:41.649Z,40.60
2019-05-01T17:37:11.055Z,46.63
2019-05-01T17:39:40.569Z,43.60
2019-05-01T17:42:11.495Z,39.18
2019-05-01T17:44:40.809Z,40.60
2019-05-01T17:47:10.067Z,37.33
2019-05-01T17:49:41.031Z,38.90
2019-05-01T17:52:10.405Z,41.42
2019-05-01T17:54:39.704Z,40.17
2019-05-01T17:57:09.062Z,38.65
2019-05-01T17:59:38.358Z,36.33
2019-05-01T18:02:25.397Z,38.35
2019-05-01T18:05:06.659Z,35.73
2019-05-01T18:07:35.935Z,39.23
2019-05-01T18:10:07.049Z,37.30
2019-05-01T18:12:36.329Z,42.00
2019-05-01T18:15:09.698Z,40.20
2019-05-01T18:17:38.978Z,39.13
2019-05-01T18:20:08.347Z,41.88
2019-05-01T18:22:39.305Z,44.83
2019-05-01T18:25:10.562Z,49.42
2019-05-01T18:27:54.443Z,51.25
2019-05-01T18:30:23.322Z,50.73
2019-05-01T18:32:53.193Z,52.80
2019-05-01T18:35:22.548Z,57.05
2019-05-01T18:37:53.527Z,57.48
2019-05-01T18:40:40.870Z,54.90
2019-05-01T18:43:10.437Z,52.30
2019-05-01T18:45:48.161Z,51.13
2019-05-01T18:48:17.717Z,49.35
2019-05-01T18:50:49.632Z,44.88
2019-05-01T18:53:18.041Z,49.33
2019-05-01T18:55:47.364Z,43.65
2019-05-01T18:58:16.717Z,46.28
2019-05-01T19:00:46.218Z,42.65
2019-05-01T19:03:15.593Z,45.70
2019-05-01T19:05:47.047Z,49.67
2019-05-01T19:08:15.978Z,50.23
2019-05-01T19:10:45.721Z,51.95
2019-05-01T19:13:16.409Z,49.50
2019-05-01T19:15:45.695Z,50.55
2019-05-01T19:18:15.077Z,56.77
2019-05-01T19:20:44.403Z,55.28
2019-05-01T19:23:15.174Z,57.62
2019-05-01T19:25:44.523Z,54.25
2019-05-01T19:28:15.768Z,55.88
2019-05-01T19:30:45.005Z,59.75
2019-05-01T19:33:15.519Z,56.13
2019-05-01T19:35:44.950Z,64.80
2019-05-01T19:38:14.316Z,70.40
2019-05-01T19:40:43.720Z,71.02
2019-05-01T19:43:13.285Z,73.35
2019-05-01T19:45:42.805Z,83.50
2019-05-01T19:48:13.556Z,80.40
2019-05-01T19:50:47.847Z,80.90
2019-05-01T19:53:14.726Z,81.30
2019-05-01T19:55:46.726Z,70.72
2019-05-01T19:58:16.186Z,77.27
2019-05-01T20:00:51.337Z,77.47
2019-05-01T20:03:21.340Z,76.80
2019-05-01T20:05:50.706Z,75.08
2019-05-01T20:08:20.369Z,67.75
2019-05-01T20:10:50.236Z,62.95
2019-05-01T20:13:19.623Z,67.03
2019-05-01T20:15:50.514Z,67.00
2019-05-01T20:18:19.793Z,66.12
2019-05-01T20:20:49.147Z,68.00
2019-05-01T20:23:18.497Z,66.35
2019-05-01T20:25:51.060Z,60.28
2019-05-01T20:28:22.347Z,64.00
2019-05-01T20:30:51.531Z,65.20
2019-05-01T20:33:20.839Z,61.13
2019-05-01T20:35:50.145Z,58.78
2019-05-01T20:38:19.423Z,57.67
2019-05-01T20:40:48.798Z,54.10
2019-05-01T20:43:18.069Z,52.23
2019-05-01T20:45:49.351Z,56.75
2019-05-01T20:48:23.763Z,54.48
2019-05-01T20:50:49.872Z,55.52
2019-05-01T20:53:19.320Z,58.83
2019-05-01T20:55:50.453Z,54.05
2019-05-01T20:58:21.103Z,55.40
2019-05-01T21:00:53.860Z,56.60
2019-05-01T21:03:23.382Z,53.98
2019-05-01T21:06:12.760Z,55.03
2019-05-01T21:08:49.788Z,58.75
2019-05-01T21:11:20.933Z,55.08
2019-05-01T21:13:50.233Z,63.73
2019-05-01T21:16:19.635Z,59.42
2019-05-01T21:18:48.977Z,53.02
2019-05-01T21:21:18.298Z,57.95
2019-05-01T21:23:48.114Z,59.77
2019-05-01T21:26:18.865Z,62.38
2019-05-01T21:28:48.512Z,57.33
2019-05-01T21:31:17.789Z,64.30
2019-05-01T21:33:50.531Z,61.02
2019-05-01T21:36:18.093Z,58.28
2019-05-01T21:38:47.405Z,60.50
2019-05-01T21:41:18.376Z,65.47
2019-05-01T21:43:47.814Z,65.65
2019-05-01T21:46:17.154Z,69.10
2019-05-01T21:48:46.455Z,71.97
2019-05-01T21:51:15.730Z,67.75
2019-05-01T21:53:46.467Z,73.92
2019-05-01T21:56:16.004Z,74.20
2019-05-01T21:58:45.328Z,65.57
2019-05-01T22:01:14.814Z,69.37
2019-05-01T22:03:44.187Z,68.83
2019-05-01T22:06:15.288Z,74.58
2019-05-01T22:08:44.498Z,63.73
2019-05-01T22:11:13.907Z,68.83
2019-05-01T22:13:43.387Z,63.73
2019-05-01T22:16:18.500Z,68.83
2019-05-01T22:18:50.375Z,73.07
2019-05-01T22:21:37.582Z,68.67
2019-05-01T22:24:11.717Z,68.47
2019-05-01T22:26:42.705Z,70.62
2019-05-01T22:29:16.592Z,69.22
2019-05-01T22:31:57.542Z,67.80
2019-05-01T22:34:37.946Z,78.10
2019-05-01T22:37:07.323Z,76.70
2019-05-01T22:39:38.284Z,80.72
2019-05-01T22:42:07.586Z,77.53
2019-05-01T22:44:37.121Z,71.95
2019-05-01T22:47:10.189Z,77.42
2019-05-01T22:49:39.026Z,81.15
2019-05-01T22:52:08.321Z,87.12
2019-05-01T22:54:37.656Z,88.78
2019-05-01T22:57:07.003Z,82.75
2019-05-01T22:59:36.310Z,90.97
2019-05-01T23:02:08.197Z,83.20
2019-05-01T23:04:37.590Z,83.97
2019-05-01T23:07:11.737Z,89.35
2019-05-01T23:09:40.523Z,94.47
2019-05-01T23:12:09.812Z,90.62
2019-05-01T23:14:39.122Z,93.12
2019-05-01T23:17:10.882Z,93.65
2019-05-01T23:19:40.194Z,90.90
2019-05-01T23:22:09.473Z,100.10
2019-05-01T23:24:38.786Z,98.45
2019-05-01T23:27:08.053Z,105.22
2019-05-01T23:29:38.491Z,98.95
2019-05-01T23:32:07.833Z,91.02
2019-05-01T23:34:38.664Z,98.60
2019-05-01T23:37:08.035Z,79.17
2019-05-01T23:39:40.257Z,72.47
2019-05-01T23:42:08.587Z,77.10
2019-05-01T23:44:38.079Z,96.72
2019-05-01T23:47:09.035Z,105.20
2019-05-01T23:49:38.358Z,104.78
2019-05-01T23:52:07.636Z,82.65
2019-05-01T23:54:36.945Z,90.17
2019-05-01T23:57:06.208Z,89.22
2019-05-01T23:59:35.565Z,118.47
